Data for 01/16/2010

Time Sea-Level Adjusted Pressure Absolute Pressure Temperature Relative Humidity Dew Point   
(mb) (inHg) (mb) (inHg) (C) (F) (%) (C) (F)
00:05 1013 29.91 842 24.86 7.1 44.7 29 -9.6 14.7
00:10 1013 29.91 842 24.86 6.9 44.5 29 -9.9 14.1
00:15 1013 29.91 842 24.86 6.9 44.4 29 -9.9 14.2
00:20 1013 29.91 842 24.86 6.8 44.2 29 -9.9 14.2
00:25 1013 29.91 842 24.86 6.9 44.5 29 -9.9 14.3
00:30 1013 29.91 842 24.86 7 44.5 30 -9.4 15
00:35 1013 29.91 842 24.86 6.7 44 31 -9.5 14.9
00:40 1013 29.91 842 24.86 6.6 43.9 30 -9.7 14.5
00:45 1013 29.91 842 24.86 6.5 43.6 32 -9 15.8
00:50 1013 29.91 842 24.86 6.3 43.3 31 -9.5 14.9
00:55 1013 29.91 842 24.86 6.4 43.5 32 -9.1 15.6
01:00 1013 29.91 842 24.86 6 42.8 33 -9.1 15.6
01:05 1013 29.91 842 24.86 6 42.8 33 -9.3 15.3
01:10 1013 29.91 842 24.86 6 42.8 33 -9.3 15.3
01:15 1013 29.91 842 24.86 5.7 42.2 33 -9.4 15
01:20 1013 29.91 842 24.86 5.7 42.3 33 -9.3 15.3
01:25 1013 29.91 842 24.86 5.5 41.9 34 -9 15.8
01:30 1013 29.91 842 24.86 5.2 41.4 36 -8.7 16.4
01:35 1013 29.91 842 24.86 5.1 41.3 37 -8.5 16.8
01:40 1013 29.91 842 24.86 4.9 40.8 37 -8.6 16.5
01:45 1013 29.91 842 24.86 4.9 40.8 35 -9.5 14.9
01:50 1013 29.91 842 24.86 5.1 41.2 34 -9.4 15.1
01:55 1013 29.91 842 24.86 5.3 41.5 34 -9.3 15.2
02:00 1013 29.91 842 24.86 5.3 41.5 35 -9.1 15.6
02:05 1013 29.91 842 24.86 5.4 41.7 34 -9.2 15.4
02:10 1013 29.91 842 24.86 5.5 41.9 35 -8.6 16.5
02:15 1013 29.91 842 24.86 5.1 41.2 36 -8.9 15.9
02:20 1013 29.91 842 24.86 4.7 40.4 36 -9.2 15.4
02:25 1013 29.91 842 24.86 4.4 39.9 37 -9 15.9
02:30 1013 29.91 842 24.86 4.2 39.5 39 -8.7 16.4
02:35 1013 29.91 842 24.86 4 39.3 39 -8.7 16.4
02:40 1013 29.91 842 24.86 4 39.2 39 -8.6 16.6
02:45 1013 29.91 842 24.86 4.1 39.3 40 -8.5 16.7
02:50 1013 29.91 842 24.86 4 39.2 38 -9.1 15.6
02:55 1013 29.91 842 24.86 4.2 39.5 37 -9.4 15.1
03:00 1013 29.91 842 24.86 4.6 40.3 34 -9.7 14.5
03:05 1013 29.91 842 24.86 5.2 41.3 33 -9.7 14.6
03:10 1013 29.91 842 24.86 5.7 42.3 31 -10.2 13.7
03:15 1013 29.91 842 24.86 6.1 43 30 -10.1 13.9
03:20 1013 29.91 842 24.86 6.2 43.2 30 -10.1 13.9
03:25 1013 29.91 842 24.86 6.3 43.3 31 -9.5 14.9
03:30 1013 29.91 842 24.86 5.9 42.7 32 -9.5 14.9
03:35 1013 29.91 842 24.86 5.5 41.9 34 -9.1 15.6
03:40 1013 29.91 842 24.86 5 41 36 -8.8 16.1
03:45 1012 29.88 842 24.86 4.7 40.5 38 -8.5 16.7
03:50 1012 29.88 841 24.83 4.9 40.9 36 -8.8 16.1
03:55 1012 29.88 841 24.83 5.5 42 36 -8.5 16.7
04:00 1012 29.88 841 24.83 5.1 41.2 36 -8.6 16.5
04:05 1012 29.88 841 24.83 5.3 41.6 37 -8.1 17.5
04:10 1012 29.88 841 24.83 5 41 37 -8.5 16.7
04:15 1012 29.88 841 24.83 4.8 40.6 39 -8.1 17.4
04:20 1012 29.88 841 24.83 4.6 40.2 40 -7.8 17.9
04:25 1012 29.88 841 24.83 4.4 39.9 39 -8.5 16.6
04:30 1012 29.88 841 24.83 4.8 40.6 38 -8.3 17.1
04:35 1012 29.88 841 24.83 4.9 40.8 38 -8.4 16.9
04:40 1012 29.88 841 24.83 4.7 40.5 37 -8.8 16.2
04:45 1012 29.88 841 24.83 4.6 40.3 38 -8.5 16.7
04:50 1012 29.88 841 24.83 4.7 40.5 37 -8.9 16
04:55 1012 29.88 841 24.83 4.8 40.6 36 -9 15.8
05:00 1012 29.88 841 24.83 4.9 40.8 37 -8.6 16.5
05:05 1012 29.88 841 24.83 4.7 40.4 38 -8.3 17
05:10 1012 29.88 841 24.83 4.2 39.6 39 -8.5 16.7
05:15 1012 29.88 841 24.83 4.2 39.6 38 -8.8 16.2
05:20 1012 29.88 841 24.83 4.2 39.6 38 -8.7 16.3
05:25 1012 29.88 841 24.83 4.1 39.4 39 -8.7 16.3
05:30 1012 29.88 841 24.83 4.4 40 36 -9.3 15.3
05:35 1012 29.88 841 24.83 4.7 40.4 34 -9.8 14.4
05:40 1012 29.88 841 24.83 5 40.9 35 -9.3 15.3
05:45 1012 29.88 841 24.83 4.9 40.8 33 -9.9 14.1
05:50 1012 29.88 841 24.83 5.1 41.2 33 -9.8 14.3
05:55 1012 29.88 841 24.83 4.9 40.9 34 -9.7 14.5
06:00 1012 29.88 841 24.83 4.3 39.7 36 -9.4 15
06:05 1012 29.88 841 24.83 3.9 39 36 -10 14
06:10 1012 29.88 841 24.83 3.7 38.7 36 -10.1 13.8
06:15 1012 29.88 842 24.86 3.7 38.6 37 -9.9 14.2
06:20 1012 29.88 842 24.86 3.6 38.4 36 -10.2 13.7
06:25 1012 29.88 842 24.86 3.3 38 39 -9.5 14.8
06:30 1012 29.88 842 24.86 2.9 37.3 38 -10.1 13.9
06:35 1012 29.88 842 24.86 2.8 37.1 39 -9.7 14.5
06:40 1012 29.88 842 24.86 2.5 36.5 41 -9.5 14.9
06:45 1012 29.88 842 24.86 2.3 36.1 41 -9.7 14.5
06:50 1012 29.88 842 24.86 2.4 36.4 41 -9.5 15
06:55 1012 29.88 842 24.86 2.5 36.5 39 -10.1 13.9
07:00 1013 29.91 842 24.86 2.8 37.1 39 -9.7 14.5
07:05 1013 29.91 842 24.86 2.1 35.8 44 -8.8 16.1
07:10 1013 29.91 842 24.86 0.9 33.7 46 -9.3 15.2
07:15 1013 29.91 842 24.86 0.4 32.8 46 -9.8 14.3
07:20 1013 29.91 842 24.86 0.6 33 47 -9.5 14.9
07:25 1013 29.91 842 24.86 0.6 33.1 47 -9.5 14.9
07:30 1013 29.91 842 24.86 0.3 32.5 49 -9.2 15.5
07:35 1013 29.91 842 24.86 0 32.1 51 -9 15.7
07:40 1013 29.91 842 24.86 -0 32 48 -9.6 14.6
07:45 1013 29.91 842 24.86 0.1 32.2 48 -9.7 14.6
07:50 1013 29.91 842 24.86 0.3 32.6 47 -9.8 14.4
07:55 1013 29.91 842 24.86 0.4 32.8 47 -9.8 14.4
08:00 1013 29.91 842 24.86 0.8 33.5 46 -9.4 15
08:05 1013 29.91 842 24.86 0.5 33 48 -9.2 15.4
08:10 1013 29.91 842 24.86 -0.2 31.7 50 -9.4 15.1
08:15 1013 29.91 842 24.86 0 32 48 -9.7 14.6
08:20 1013 29.91 842 24.86 0.4 32.6 47 -9.8 14.3
08:25 1013 29.91 842 24.86 0.6 33.1 48 -9.1 15.6
08:30 1013 29.91 842 24.86 0 32.1 49 -9.5 14.9
08:35 1013 29.91 842 24.86 -0.2 31.7 50 -9.4 15
08:40 1013 29.91 842 24.86 -0.1 31.7 49 -9.6 14.7
08:45 1013 29.91 842 24.86 0.1 32.2 49 -9.4 15
08:50 1013 29.91 842 24.86 0.1 32.1 48 -9.7 14.6
08:55 1013 29.91 843 24.89 0.3 32.6 48 -9.6 14.7
09:00 1013 29.91 843 24.89 1.2 34.2 44 -9.6 14.6
09:05 1013 29.91 843 24.89 1.8 35.3 43 -9.4 15.1
09:10 1014 29.94 843 24.89 2.3 36.1 43 -9.1 15.6
09:15 1014 29.94 843 24.89 2.6 36.7 41 -9.4 15.1
09:20 1014 29.94 843 24.89 2.3 36.1 43 -9.1 15.6
09:25 1014 29.94 843 24.89 2.7 36.9 40 -9.6 14.7
09:30 1014 29.94 843 24.89 2.4 36.3 42 -9.3 15.3
09:35 1014 29.94 843 24.89 2.4 36.3 40 -9.8 14.3
09:40 1014 29.94 843 24.89 2.4 36.3 42 -9.3 15.2
09:45 1014 29.94 843 24.89 2.3 36.2 41 -9.8 14.4
09:50 1014 29.94 843 24.89 2.6 36.7 40 -9.6 14.8
09:55 1014 29.94 843 24.89 3.1 37.6 38 -10 14
10:00 1014 29.94 843 24.89 3 37.5 41 -9.1 15.7
10:05 1014 29.94 843 24.89 2.9 37.2 41 -9.2 15.4
10:10 1014 29.94 843 24.89 3.2 37.7 40 -9 15.8
10:15 1014 29.94 843 24.89 2.9 37.3 39 -9.5 14.8
10:20 1014 29.94 843 24.89 2.8 37 42 -8.9 16
10:25 1014 29.94 843 24.89 2.6 36.6 42 -9.1 15.7
10:30 1014 29.94 843 24.89 2 35.6 42 -9.6 14.7
10:35 1014 29.94 843 24.89 2.1 35.7 43 -9.2 15.4
10:40 1014 29.94 843 24.89 2.1 35.8 42 -9.4 15.1
10:45 1014 29.94 843 24.89 2 35.6 43 -9.2 15.4
10:50 1014 29.94 843 24.89 2 35.6 43 -9.4 15.1
10:55 1014 29.94 843 24.89 2.2 36 41 -9.7 14.5
11:00 1014 29.94 843 24.89 2.4 36.4 42 -9.3 15.3
11:05 1014 29.94 843 24.89 2.5 36.5 40 -9.7 14.6
11:10 1014 29.94 843 24.89 2.9 37.3 40 -9.4 15.1
11:15 1014 29.94 843 24.89 3.2 37.8 38 -9.9 14.1
11:20 1014 29.94 843 24.89 3.5 38.4 38 -9.5 14.8
11:25 1014 29.94 843 24.89 3.7 38.7 36 -10 14
11:30 1014 29.94 843 24.89 3.8 38.8 37 -9.5 14.9
11:35 1013 29.91 843 24.89 3.6 38.5 38 -9.3 15.3
11:40 1013 29.91 843 24.89 3.7 38.7 37 -9.8 14.4
11:45 1013 29.91 842 24.86 3.9 39 38 -9.1 15.5
11:50 1013 29.91 842 24.86 3.7 38.7 39 -9 15.8
11:55 1013 29.91 842 24.86 4 39.1 37 -9.5 14.9
12:00 1013 29.91 842 24.86 4 39.2 37 -9.3 15.3
12:05 1013 29.91 842 24.86 3.9 39.1 38 -9.3 15.3
12:10 1013 29.91 842 24.86 3.9 39 38 -9.2 15.4
12:15 1013 29.91 842 24.86 4 39.1 38 -9 15.8
12:20 1013 29.91 842 24.86 4.3 39.7 35 -9.8 14.4
12:25 1013 29.91 842 24.86 5.2 41.4 33 -9.8 14.4
12:30 1013 29.91 842 24.86 5 40.9 35 -9.2 15.4
12:35 1013 29.91 842 24.86 5.4 41.6 33 -9.6 14.7
12:40 1012 29.88 842 24.86 5.4 41.7 35 -8.9 15.9
12:45 1012 29.88 842 24.86 5.3 41.6 35 -8.8 16.1
12:50 1012 29.88 842 24.86 4.2 39.6 38 -8.9 16
12:55 1012 29.88 842 24.86 4 39.2 36 -9.6 14.7
13:00 1012 29.88 842 24.86 4 39.2 38 -9.2 15.4
13:05 1012 29.88 841 24.83 3.9 38.9 38 -9.3 15.2
13:10 1012 29.88 841 24.83 3.3 38 40 -9.2 15.5
13:15 1012 29.88 841 24.83 3 37.4 40 -9.4 15
13:20 1012 29.88 841 24.83 3.3 37.9 40 -9.2 15.4
13:25 1012 29.88 841 24.83 3.5 38.2 40 -9 15.9
13:30 1012 29.88 841 24.83 3.5 38.3 40 -9 15.8
13:35 1012 29.88 841 24.83 3.8 38.8 38 -9.2 15.4
13:40 1012 29.88 841 24.83 3.5 38.3 39 -9 15.7
13:45 1012 29.88 841 24.83 3.4 38.2 40 -9 15.8
13:50 1012 29.88 841 24.83 3.7 38.7 39 -8.9 15.9
13:55 1012 29.88 841 24.83 3.7 38.7 40 -8.6 16.6
14:00 1012 29.88 841 24.83 3.7 38.7 40 -8.7 16.4
14:05 1012 29.88 841 24.83 3.8 38.8 40 -8.7 16.4
14:10 1012 29.88 841 24.83 3.7 38.7 39 -8.9 16
14:15 1012 29.88 841 24.83 4.1 39.4 40 -8.3 17.1
14:20 1012 29.88 841 24.83 4.1 39.4 39 -8.5 16.7
14:25 1012 29.88 841 24.83 4.1 39.3 39 -8.6 16.6
14:30 1012 29.88 841 24.83 3.8 38.9 40 -8.7 16.3
14:35 1012 29.88 841 24.83 3.8 38.8 40 -8.6 16.5
14:40 1012 29.88 841 24.83 3.8 38.8 39 -9 15.7
14:45 1012 29.88 841 24.83 4 39.2 39 -8.7 16.3
14:50 1012 29.88 841 24.83 4.1 39.4 40 -8.4 16.9
14:55 1012 29.88 841 24.83 4.1 39.4 41 -8.1 17.5
15:00 1012 29.88 841 24.83 4.2 39.5 40 -8.4 16.9
15:05 1012 29.88 841 24.83 4.1 39.3 40 -8.2 17.2
15:10 1012 29.88 841 24.83 4 39.3 41 -8 17.6
15:15 1012 29.88 842 24.86 4.2 39.6 40 -8.3 17.1
15:20 1012 29.88 842 24.86 4.4 39.9 40 -8 17.6
15:25 1012 29.88 842 24.86 4.4 40 40 -7.9 17.7
15:30 1012 29.88 842 24.86 4.3 39.8 42 -7.5 18.5
15:35 1012 29.88 842 24.86 4.1 39.4 42 -7.7 18.2
15:40 1012 29.88 842 24.86 4.1 39.4 44 -7 19.3
15:45 1012 29.88 842 24.86 4 39.1 42 -7.7 18.1
15:50 1012 29.88 842 24.86 3.9 39 43 -7.6 18.4
15:55 1013 29.91 842 24.86 4 39.1 44 -7.4 18.7
16:00 1013 29.91 842 24.86 4.1 39.4 42 -7.8 18
16:05 1013 29.91 842 24.86 4.3 39.7 44 -6.9 19.6
16:10 1013 29.91 842 24.86 4.3 39.7 44 -6.9 19.6
16:15 1013 29.91 842 24.86 4.4 40 42 -7.4 18.7
16:20 1013 29.91 842 24.86 4.6 40.3 41 -7.4 18.6
16:25 1013 29.91 842 24.86 4.5 40.2 43 -6.9 19.6
16:30 1013 29.91 842 24.86 4.5 40 43 -7.1 19.2
16:35 1013 29.91 842 24.86 4.5 40 39 -8.2 17.2
16:40 1013 29.91 842 24.86 5 41 37 -8.5 16.7
16:45 1013 29.91 842 24.86 5.5 41.8 33 -9.5 14.8
16:50 1013 29.91 842 24.86 5.8 42.4 32 -9.8 14.4
16:55 1013 29.91 842 24.86 6 42.8 33 -9 15.8
17:00 1013 29.91 842 24.86 6.1 43 34 -8.7 16.3
17:05 1013 29.91 842 24.86 6.1 43 34 -8.8 16.1
17:10 1013 29.91 842 24.86 6.1 43 33 -9 15.7
17:15 1013 29.91 842 24.86 5.9 42.6 41 -6.4 20.5
17:20 1013 29.91 842 24.86 5.3 41.5 43 -6.2 20.8
17:25 1013 29.91 842 24.86 4.3 39.7 47 -6.1 21
17:30 1013 29.91 842 24.86 4.1 39.3 46 -6.7 20
17:35 1013 29.91 842 24.86 4.1 39.3 44 -7.1 19.2
17:40 1013 29.91 842 24.86 4.4 40 41 -7.6 18.3
17:45 1013 29.91 842 24.86 4.7 40.5 41 -7.5 18.5
17:50 1013 29.91 842 24.86 4.5 40 40 -7.9 17.8
17:55 1013 29.91 842 24.86 4.7 40.5 39 -8 17.6
18:00 1013 29.91 843 24.89 5.1 41.1 37 -8.5 16.7
18:05 1013 29.91 843 24.89 5.3 41.6 41 -6.8 19.8
18:10 1013 29.91 843 24.89 4.9 40.9 40 -7.5 18.6
18:15 1013 29.91 843 24.89 4.7 40.4 47 -5.8 21.6
18:20 1013 29.91 843 24.89 4.2 39.6 45 -6.6 20.1
18:25 1013 29.91 843 24.89 4 39.3 46 -6.5 20.3
18:30 1013 29.91 843 24.89 4.1 39.3 46 -6.6 20.1
18:35 1013 29.91 843 24.89 4.1 39.4 45 -6.8 19.8
18:40 1013 29.91 843 24.89 4.2 39.6 47 -6.2 20.8
18:45 1013 29.91 843 24.89 4.4 40 44 -6.8 19.7
18:50 1013 29.91 842 24.86 4.6 40.3 43 -6.8 19.8
18:55 1013 29.91 842 24.86 4.4 39.9 50 -5.2 22.7
19:00 1013 29.91 842 24.86 3.9 39 53 -4.9 23.1
19:05 1013 29.91 843 24.89 3.7 38.6 48 -6.4 20.5
19:10 1013 29.91 842 24.86 3.8 38.8 49 -6 21.2
19:15 1013 29.91 842 24.86 3.8 38.9 48 -6.1 21
19:20 1013 29.91 842 24.86 3.9 39.1 47 -6.4 20.5
19:25 1013 29.91 842 24.86 4.1 39.3 42 -7.7 18.1
19:30 1013 29.91 842 24.86 4.8 40.6 40 -7.6 18.4
19:35 1013 29.91 842 24.86 5.1 41.1 41 -7.2 19.1
19:40 1013 29.91 842 24.86 5 40.9 44 -6.4 20.4
19:45 1013 29.91 842 24.86 4.7 40.4 46 -6.1 21
19:50 1013 29.91 842 24.86 4.4 39.9 45 -6.5 20.4
19:55 1013 29.91 842 24.86 4.2 39.6 45 -6.6 20.1
20:00 1013 29.91 842 24.86 3.9 39.1 49 -5.8 21.5
20:05 1013 29.91 842 24.86 3.4 38.1 50 -6.1 21
20:10 1013 29.91 843 24.89 3.2 37.8 51 -5.9 21.5
20:15 1013 29.91 843 24.89 2.8 37.1 51 -6.2 20.8
20:20 1013 29.91 843 24.89 2.9 37.2 50 -6.5 20.3
20:25 1013 29.91 843 24.89 2.7 36.9 56 -5.3 22.5
20:30 1013 29.91 843 24.89 2.6 36.6 49 -7 19.5
20:35 1013 29.91 843 24.89 3.3 37.9 51 -6 21.2
20:40 1013 29.91 843 24.89 3.2 37.7 53 -5.5 22.2
20:45 1013 29.91 843 24.89 2.9 37.1 52 -6 21.3
20:50 1013 29.91 843 24.89 2.9 37.1 56 -5.2 22.7
20:55 1013 29.91 843 24.89 2.5 36.5 56 -5.5 22.2
21:00 1014 29.94 843 24.89 2.6 36.8 52 -6.3 20.6
21:05 1014 29.94 843 24.89 3.2 37.8 49 -6.4 20.4
21:10 1014 29.94 843 24.89 3.4 38.1 51 -5.7 21.7
21:15 1014 29.94 843 24.89 3.2 37.7 51 -6 21.3
21:20 1014 29.94 843 24.89 3.4 38.1 54 -5.1 22.7
21:25 1014 29.94 843 24.89 3.1 37.6 58 -4.3 24.2
21:30 1014 29.94 843 24.89 2.4 36.4 57 -5.2 22.7
21:35 1014 29.94 843 24.89 2.1 35.9 54 -6.2 20.9
21:40 1014 29.94 843 24.89 2.3 36.2 55 -5.7 21.7
21:45 1014 29.94 843 24.89 2.5 36.5 55 -5.5 22.1
21:50 1014 29.94 843 24.89 2.8 37.1 53 -5.9 21.4
21:55 1014 29.94 843 24.89 3.4 38.1 51 -5.8 21.6
22:00 1014 29.94 843 24.89 3.4 38.1 50 -5.9 21.3
22:05 1014 29.94 843 24.89 3.3 38 50 -6.1 21.1
22:10 1014 29.94 843 24.89 3.5 38.3 50 -6.1 21.1
22:15 1014 29.94 843 24.89 3.5 38.3 55 -4.8 23.3
22:20 1014 29.94 843 24.89 2.7 36.8 57 -5 22.9
22:25 1014 29.94 843 24.89 2.5 36.4 62 -4 24.7
22:30 1014 29.94 843 24.89 1.7 35 65 -4.2 24.4
22:35 1014 29.94 843 24.89 1.4 34.6 66 -4.2 24.4
22:40 1014 29.94 843 24.89 1.3 34.3 66 -4.4 24.1
22:45 1014 29.94 843 24.89 1.3 34.3 66 -4.4 24.1
22:50 1014 29.94 843 24.89 1.2 34.2 67 -4.3 24.3
22:55 1014 29.94 843 24.89 1.2 34.1 66 -4.4 24.1
23:00 1014 29.94 843 24.89 1.3 34.3 67 -4.3 24.3
23:05 1014 29.94 843 24.89 1.2 34.2 67 -4.2 24.5
23:10 1014 29.94 843 24.89 1.3 34.3 67 -4.2 24.5
23:15 1014 29.94 843 24.89 1.3 34.4 67 -4.2 24.4
23:20 1014 29.94 843 24.89 1.7 35.1 60 -5.2 22.6
23:25 1014 29.94 843 24.89 2.3 36.1 59 -4.9 23.2
23:30 1014 29.94 843 24.89 2.4 36.3 58 -5 23
23:35 1014 29.94 843 24.89 2.5 36.4 59 -4.8 23.3
23:40 1014 29.94 843 24.89 2.4 36.4 59 -4.8 23.4
23:45 1014 29.94 843 24.89 2.4 36.4 59 -4.8 23.3
23:50 1014 29.94 843 24.89 2.4 36.4 58 -4.9 23.1
23:55 1014 29.94 843 24.89 2.6 36.7 57 -5.2 22.7
24:00 1014 29.94 843 24.89 2.6 36.8 58 -4.8 23.3